createdAt,value
2023-02-26T00:00:21.768Z,101772.13
2023-02-26T00:03:26.852Z,101775.53
2023-02-26T00:06:33.860Z,101789.88
2023-02-26T00:09:37.753Z,101793.25
2023-02-26T00:12:42.186Z,101795.75
2023-02-26T00:15:46.281Z,101798.31
2023-02-26T00:18:52.195Z,101799.13
2023-02-26T00:21:56.485Z,101801.53
2023-02-26T00:25:00.104Z,101808.56
2023-02-26T00:28:04.492Z,101809.19
2023-02-26T00:31:09.841Z,101818.38
2023-02-26T00:34:16.096Z,101814.00
2023-02-26T00:37:46.639Z,101815.75
2023-02-26T00:40:54.191Z,101816.47
2023-02-26T00:43:58.634Z,101824.06
2023-02-26T00:47:14.104Z,101831.72
2023-02-26T00:50:22.573Z,101845.53
2023-02-26T00:53:34.523Z,101842.16
2023-02-26T00:56:38.460Z,101845.84
2023-02-26T00:59:42.001Z,101844.13
2023-02-26T01:02:46.518Z,101840.75
2023-02-26T01:05:52.059Z,101845.94
2023-02-26T01:09:06.717Z,101842.75
2023-02-26T01:12:13.893Z,101850.19
2023-02-26T01:15:29.645Z,101842.41
2023-02-26T01:18:42.475Z,101853.47
2023-02-26T01:21:57.741Z,101856.22
2023-02-26T01:25:08.652Z,101857.00
2023-02-26T01:28:13.103Z,101864.56
2023-02-26T01:31:35.953Z,101872.19
2023-02-26T01:34:49.992Z,101877.09
2023-02-26T01:38:04.823Z,101884.94
2023-02-26T01:41:34.466Z,101882.94
2023-02-26T01:44:49.787Z,101884.59
2023-02-26T01:48:03.271Z,101893.13
2023-02-26T01:51:07.347Z,101896.34
2023-02-26T01:54:12.664Z,101903.91
2023-02-26T01:57:19.756Z,101897.00
2023-02-26T02:00:23.845Z,101908.22
2023-02-26T02:03:31.680Z,101909.66
2023-02-26T02:06:35.277Z,101913.06
2023-02-26T02:09:40.789Z,101923.41
2023-02-26T02:12:57.934Z,101919.03
2023-02-26T02:16:19.088Z,101927.69
2023-02-26T02:20:27.618Z,101938.00
2023-02-26T02:23:43.291Z,101941.22
2023-02-26T02:27:04.949Z,101945.72
2023-02-26T02:30:26.580Z,101952.16
2023-02-26T02:33:42.747Z,101949.53
2023-02-26T02:36:54.407Z,101957.31
2023-02-26T02:40:03.103Z,101958.94
2023-02-26T02:43:14.304Z,101962.34
2023-02-26T02:46:25.124Z,101969.13
2023-02-26T02:49:38.760Z,101974.38
2023-02-26T02:52:49.749Z,101975.75
2023-02-26T02:56:00.106Z,101981.94
2023-02-26T02:59:16.392Z,101991.28
2023-02-26T03:02:26.855Z,101981.94
2023-02-26T03:05:31.928Z,101990.59
2023-02-26T03:08:41.391Z,101987.91
2023-02-26T03:11:45.004Z,102002.63
2023-02-26T03:14:48.849Z,102003.44
2023-02-26T03:18:04.061Z,102001.09
2023-02-26T03:21:28.622Z,102002.72
2023-02-26T03:24:39.642Z,102006.91
2023-02-26T03:27:50.742Z,102005.19
2023-02-26T03:31:03.419Z,102017.31
2023-02-26T03:34:16.804Z,102008.56
2023-02-26T03:37:28.549Z,102023.09
2023-02-26T03:40:39.060Z,102028.38
2023-02-26T03:43:50.471Z,102032.88
2023-02-26T03:46:59.789Z,102038.97
2023-02-26T03:50:10.612Z,102050.31
2023-02-26T03:53:24.327Z,102055.41
2023-02-26T03:56:34.896Z,102056.28
2023-02-26T03:59:38.835Z,102051.78
2023-02-26T04:02:50.239Z,102063.91
2023-02-26T04:05:55.222Z,102071.47
2023-02-26T04:09:00.523Z,102080.03
2023-02-26T04:12:04.961Z,102079.44
2023-02-26T04:15:10.522Z,102094.38
2023-02-26T04:18:14.089Z,102093.00
2023-02-26T04:21:22.678Z,102104.66
2023-02-26T04:24:27.714Z,102108.88
2023-02-26T04:27:31.193Z,102111.44
2023-02-26T04:30:34.752Z,102107.16
2023-02-26T04:33:38.469Z,102107.16
2023-02-26T04:36:42.049Z,102111.06
2023-02-26T04:39:46.867Z,102117.97
2023-02-26T04:42:50.320Z,102118.06
2023-02-26T04:45:53.884Z,102124.88
2023-02-26T04:48:57.445Z,102128.13
2023-02-26T04:52:00.942Z,102131.50
2023-02-26T04:55:07.465Z,102129.72
2023-02-26T04:58:11.099Z,102134.75
2023-02-26T05:01:14.798Z,102148.56
2023-02-26T05:04:18.454Z,102153.63
2023-02-26T05:07:21.953Z,102159.50
2023-02-26T05:10:27.376Z,102159.38
2023-02-26T05:13:30.890Z,102161.97
2023-02-26T05:16:34.387Z,102163.56
2023-02-26T05:19:37.884Z,102172.97
2023-02-26T05:22:41.399Z,102174.72
2023-02-26T05:25:46.242Z,102178.13
2023-02-26T05:28:49.950Z,102183.03
2023-02-26T05:31:53.663Z,102189.13
2023-02-26T05:34:57.338Z,102178.16
2023-02-26T05:38:01.057Z,102192.78
2023-02-26T05:41:06.461Z,102185.94
2023-02-26T05:44:10.115Z,102193.47
2023-02-26T05:47:13.762Z,102193.41
2023-02-26T05:50:17.357Z,102196.78
2023-02-26T05:53:21.117Z,102195.97
2023-02-26T05:56:26.316Z,102207.09
2023-02-26T05:59:30.059Z,102212.91
2023-02-26T06:02:33.617Z,102219.13
2023-02-26T06:05:37.259Z,102221.56
2023-02-26T06:08:40.909Z,102233.34
2023-02-26T06:11:45.904Z,102230.03
2023-02-26T06:14:49.437Z,102240.38
2023-02-26T06:17:53.206Z,102246.31
2023-02-26T06:20:56.745Z,102250.22
2023-02-26T06:24:00.449Z,102252.91
2023-02-26T06:27:05.539Z,102257.38
2023-02-26T06:30:10.903Z,102256.38
2023-02-26T06:33:14.545Z,102262.50
2023-02-26T06:36:18.311Z,102261.53
2023-02-26T06:39:21.990Z,102272.66
2023-02-26T06:42:26.950Z,102268.25
2023-02-26T06:45:30.621Z,102267.53
2023-02-26T06:48:34.307Z,102277.13
2023-02-26T06:51:37.891Z,102277.38
2023-02-26T06:54:41.333Z,102286.16
2023-02-26T06:57:46.244Z,102292.25
2023-02-26T07:00:50.034Z,102294.97
2023-02-26T07:03:53.635Z,102287.63
2023-02-26T07:06:57.174Z,102295.22
2023-02-26T07:10:00.645Z,102299.13
2023-02-26T07:13:05.904Z,102308.84
2023-02-26T07:16:09.896Z,102314.19
2023-02-26T07:19:13.445Z,102318.84
2023-02-26T07:22:17.754Z,102321.72
2023-02-26T07:25:21.581Z,102326.06
2023-02-26T07:28:26.610Z,102335.97
2023-02-26T07:31:30.273Z,102335.78
2023-02-26T07:34:34.444Z,102342.69
2023-02-26T07:37:38.372Z,102349.72
2023-02-26T07:40:42.315Z,102355.63
2023-02-26T07:43:47.639Z,102359.00
2023-02-26T07:46:51.245Z,102360.19
2023-02-26T07:49:54.692Z,102352.28
2023-02-26T07:52:58.277Z,102351.63
2023-02-26T07:56:01.985Z,102358.19
2023-02-26T07:59:07.042Z,102362.81
2023-02-26T08:02:11.955Z,102364.34
2023-02-26T08:05:15.508Z,102368.75
2023-02-26T08:08:19.006Z,102373.34
2023-02-26T08:11:22.678Z,102373.88
2023-02-26T08:14:27.606Z,102377.63
2023-02-26T08:17:31.170Z,102379.94
2023-02-26T08:20:34.715Z,102389.59
2023-02-26T08:23:38.894Z,102386.09
2023-02-26T08:26:42.690Z,102392.72
2023-02-26T08:29:50.309Z,102395.56
2023-02-26T08:32:53.865Z,102408.81
2023-02-26T08:35:59.169Z,102403.53
2023-02-26T08:39:02.766Z,102412.75
2023-02-26T08:42:07.889Z,102426.78
2023-02-26T08:45:17.473Z,102424.97
2023-02-26T08:48:21.773Z,102431.28
2023-02-26T08:51:25.570Z,102425.72
2023-02-26T08:54:29.404Z,102435.38
2023-02-26T08:57:33.029Z,102434.44
2023-02-26T09:00:38.275Z,102437.13
2023-02-26T09:03:41.741Z,102444.41
2023-02-26T09:06:45.546Z,102440.69
2023-02-26T09:09:49.049Z,102446.22
2023-02-26T09:12:52.766Z,102456.69
2023-02-26T09:15:58.145Z,102468.56
2023-02-26T09:19:01.672Z,102465.88
2023-02-26T09:22:06.368Z,102470.06
2023-02-26T09:25:11.802Z,102472.19
2023-02-26T09:28:15.383Z,102477.78
2023-02-26T09:31:20.383Z,102477.31
2023-02-26T09:34:23.921Z,102480.53
2023-02-26T09:37:27.724Z,102472.44
2023-02-26T09:40:46.353Z,102479.88
2023-02-26T09:44:15.691Z,102477.91
2023-02-26T09:47:28.412Z,102488.88
2023-02-26T09:50:42.206Z,102491.69
2023-02-26T09:53:47.150Z,102480.13
2023-02-26T09:56:52.708Z,102487.94
2023-02-26T09:59:56.725Z,102496.59
2023-02-26T10:03:22.849Z,102490.81
2023-02-26T10:06:31.508Z,102501.34
2023-02-26T10:09:56.216Z,102501.50
2023-02-26T10:13:00.522Z,102505.91
2023-02-26T10:16:12.608Z,102514.06
2023-02-26T10:19:23.232Z,102505.44
2023-02-26T10:22:35.921Z,102514.75
2023-02-26T10:25:45.225Z,102521.34
2023-02-26T10:29:12.706Z,102523.31
2023-02-26T10:32:29.834Z,102517.66
2023-02-26T10:35:44.537Z,102526.31
2023-02-26T10:38:55.234Z,102525.69
2023-02-26T10:42:06.345Z,102532.25
2023-02-26T10:45:29.766Z,102533.31
2023-02-26T10:48:55.700Z,102540.13
2023-02-26T10:52:13.469Z,102538.09
2023-02-26T10:55:41.988Z,102537.78
2023-02-26T10:58:46.706Z,102539.88
2023-02-26T11:01:52.405Z,102540.34
2023-02-26T11:05:06.844Z,102548.03
2023-02-26T11:08:20.429Z,102546.31
2023-02-26T11:11:46.963Z,102560.63
2023-02-26T11:14:51.470Z,102559.59
2023-02-26T11:17:58.716Z,102559.25
2023-02-26T11:21:02.590Z,102555.94
2023-02-26T11:24:14.206Z,102556.44
2023-02-26T11:27:22.978Z,102554.88
2023-02-26T11:30:31.333Z,102550.41
2023-02-26T11:33:40.257Z,102549.91
2023-02-26T11:36:46.341Z,102553.00
2023-02-26T11:40:00.851Z,102551.13
2023-02-26T11:43:10.380Z,102545.09
2023-02-26T11:46:15.511Z,102544.72
2023-02-26T11:49:23.926Z,102549.97
2023-02-26T11:52:34.452Z,102567.59
2023-02-26T11:55:45.679Z,102550.03
2023-02-26T11:58:55.243Z,102553.50
2023-02-26T12:02:06.730Z,102552.47
2023-02-26T12:05:18.553Z,102541.25
2023-02-26T12:08:29.047Z,102542.28
2023-02-26T12:12:10.336Z,102561.44
2023-02-26T12:15:42.968Z,102547.34
2023-02-26T12:19:02.158Z,102529.31
2023-02-26T12:22:30.905Z,102535.03
2023-02-26T12:26:15.235Z,102533.50
2023-02-26T12:30:13.884Z,102534.22
2023-02-26T12:33:33.492Z,102543.78
2023-02-26T12:36:57.238Z,102563.75
2023-02-26T12:40:19.308Z,102555.09
2023-02-26T12:43:35.794Z,102556.91
2023-02-26T12:47:07.916Z,102563.75
2023-02-26T12:50:42.484Z,102549.78
2023-02-26T12:54:23.765Z,102545.53
2023-02-26T12:57:59.592Z,102542.88
2023-02-26T13:01:26.736Z,102537.75
2023-02-26T13:05:03.248Z,102543.75
2023-02-26T13:08:22.912Z,102547.13
2023-02-26T13:11:47.465Z,102554.91
2023-02-26T13:15:07.374Z,102557.13
2023-02-26T13:18:22.877Z,102562.75
2023-02-26T13:21:34.524Z,102565.47
2023-02-26T13:24:43.921Z,102554.34
2023-02-26T13:27:50.028Z,102553.69
2023-02-26T13:30:57.459Z,102558.09
2023-02-26T13:34:07.773Z,102565.63
2023-02-26T13:37:26.320Z,102566.03
2023-02-26T13:40:58.076Z,102561.19
2023-02-26T13:44:29.971Z,102556.28
2023-02-26T13:48:01.421Z,102559.53
2023-02-26T13:51:13.991Z,102546.25
2023-02-26T13:54:47.203Z,102547.13
2023-02-26T13:57:54.055Z,102557.06
2023-02-26T14:01:09.181Z,102546.75
2023-02-26T14:04:29.348Z,102545.81
2023-02-26T14:07:53.504Z,102552.34
2023-02-26T14:11:04.669Z,102541.50
2023-02-26T14:14:17.240Z,102546.91
2023-02-26T14:17:41.350Z,102542.81
2023-02-26T14:20:47.419Z,102542.88
2023-02-26T14:23:59.107Z,102540.53
2023-02-26T14:27:31.817Z,102547.78
2023-02-26T14:30:36.288Z,102546.78
2023-02-26T14:33:46.688Z,102551.16
2023-02-26T14:36:54.608Z,102547.03
2023-02-26T14:40:09.001Z,102551.44
2023-02-26T14:43:36.136Z,102553.34
2023-02-26T14:46:41.314Z,102551.16
2023-02-26T14:49:49.585Z,102556.06
2023-02-26T14:53:35.145Z,102549.56
2023-02-26T14:56:58.805Z,102548.66
2023-02-26T15:00:24.019Z,102548.19
2023-02-26T15:03:53.653Z,102550.25
2023-02-26T15:07:35.949Z,102537.44
2023-02-26T15:11:01.591Z,102546.25
2023-02-26T15:14:29.998Z,102555.69
2023-02-26T15:17:57.090Z,102561.44
2023-02-26T15:21:13.448Z,102563.41
2023-02-26T15:24:17.609Z,102559.81
2023-02-26T15:27:22.533Z,102555.63
2023-02-26T15:30:27.061Z,102550.63
2023-02-26T15:33:32.002Z,102559.19
2023-02-26T15:36:35.498Z,102561.88
2023-02-26T15:39:38.960Z,102565.47
2023-02-26T15:42:46.530Z,102572.97
2023-02-26T15:45:54.826Z,102573.53
2023-02-26T15:49:06.522Z,102585.25
2023-02-26T15:52:17.339Z,102571.19
2023-02-26T15:55:21.273Z,102583.16
2023-02-26T15:58:35.996Z,102579.72
2023-02-26T16:01:42.310Z,102585.75
2023-02-26T16:04:47.217Z,102585.09
2023-02-26T16:07:51.301Z,102585.16
2023-02-26T16:10:57.662Z,102573.03
2023-02-26T16:14:03.119Z,102587.75
2023-02-26T16:17:09.542Z,102578.53
2023-02-26T16:20:21.422Z,102587.66
2023-02-26T16:23:30.701Z,102589.22
2023-02-26T16:26:39.356Z,102594.13
2023-02-26T16:29:52.053Z,102594.81
2023-02-26T16:32:56.377Z,102592.16
2023-02-26T16:36:15.792Z,102598.16
2023-02-26T16:39:25.416Z,102605.84
2023-02-26T16:42:47.083Z,102608.38
2023-02-26T16:45:55.793Z,102612.75
2023-02-26T16:49:06.000Z,102626.59
2023-02-26T16:52:19.090Z,102632.50
2023-02-26T16:55:22.663Z,102629.88
2023-02-26T16:58:26.854Z,102637.63
2023-02-26T17:01:36.571Z,102639.19
2023-02-26T17:04:41.260Z,102640.72
2023-02-26T17:07:56.373Z,102647.56
2023-02-26T17:11:05.183Z,102639.69
2023-02-26T17:14:22.507Z,102648.97
2023-02-26T17:17:26.360Z,102648.75
2023-02-26T17:20:31.985Z,102663.25
2023-02-26T17:23:40.004Z,102663.94
2023-02-26T17:26:43.715Z,102663.94
2023-02-26T17:29:51.733Z,102668.19
2023-02-26T17:32:55.289Z,102669.72
2023-02-26T17:36:03.353Z,102682.59
2023-02-26T17:39:08.754Z,102684.38
2023-02-26T17:42:14.311Z,102678.84
2023-02-26T17:45:18.588Z,102685.66
2023-02-26T17:48:22.737Z,102686.38
2023-02-26T17:51:27.530Z,102690.44
2023-02-26T17:54:32.564Z,102690.31
2023-02-26T17:57:36.071Z,102700.28
2023-02-26T18:00:42.023Z,102707.88
2023-02-26T18:03:45.594Z,102713.75
2023-02-26T18:06:49.759Z,102723.97
2023-02-26T18:09:54.657Z,102724.66
2023-02-26T18:12:58.478Z,102718.56
2023-02-26T18:16:02.962Z,102721.63
2023-02-26T18:19:08.046Z,102733.66
2023-02-26T18:22:14.905Z,102724.75
2023-02-26T18:25:20.236Z,102731.34
2023-02-26T18:28:26.702Z,102721.63
2023-02-26T18:31:34.952Z,102736.91
2023-02-26T18:34:38.966Z,102740.97
2023-02-26T18:37:42.493Z,102735.59
2023-02-26T18:40:49.272Z,102735.41
2023-02-26T18:43:52.763Z,102737.88
2023-02-26T18:46:56.270Z,102735.03
2023-02-26T18:49:59.799Z,102743.53
2023-02-26T18:53:03.442Z,102748.56
2023-02-26T18:56:08.982Z,102749.00
2023-02-26T18:59:12.656Z,102751.25
2023-02-26T19:02:16.679Z,102755.50
2023-02-26T19:05:23.427Z,102753.63
2023-02-26T19:08:27.268Z,102749.25
2023-02-26T19:11:32.190Z,102755.41
2023-02-26T19:14:37.217Z,102757.56
2023-02-26T19:17:40.995Z,102750.28
2023-02-26T19:20:44.797Z,102756.94
2023-02-26T19:23:48.456Z,102764.53
2023-02-26T19:26:53.514Z,102758.50
2023-02-26T19:29:57.184Z,102760.13
2023-02-26T19:33:00.761Z,102762.41
2023-02-26T19:36:04.865Z,102751.81
2023-02-26T19:39:08.499Z,102756.84
2023-02-26T19:42:13.470Z,102752.38
2023-02-26T19:45:18.442Z,102757.38
2023-02-26T19:48:22.024Z,102760.53
2023-02-26T19:51:25.955Z,102756.44
2023-02-26T19:54:30.376Z,102759.88
2023-02-26T19:57:35.489Z,102772.72
2023-02-26T20:00:39.424Z,102772.38
2023-02-26T20:03:42.972Z,102774.94
2023-02-26T20:06:46.784Z,102788.38
2023-02-26T20:09:50.410Z,102786.38
2023-02-26T20:12:56.118Z,102793.56
2023-02-26T20:16:00.300Z,102806.06
2023-02-26T20:19:03.865Z,102805.88
2023-02-26T20:22:07.504Z,102815.66
2023-02-26T20:25:11.394Z,102813.88
2023-02-26T20:28:16.392Z,102819.03
2023-02-26T20:31:20.307Z,102824.53
2023-02-26T20:34:24.044Z,102831.34
2023-02-26T20:37:27.587Z,102829.50
2023-02-26T20:40:31.235Z,102831.44
2023-02-26T20:43:36.605Z,102833.34
2023-02-26T20:46:40.187Z,102841.25
2023-02-26T20:49:43.837Z,102838.88
2023-02-26T20:52:47.560Z,102843.75
2023-02-26T20:55:51.069Z,102851.81
2023-02-26T20:58:55.977Z,102847.50
2023-02-26T21:01:59.513Z,102847.66
2023-02-26T21:05:03.103Z,102850.28
2023-02-26T21:08:07.443Z,102851.16
2023-02-26T21:11:10.910Z,102854.56
2023-02-26T21:14:15.809Z,102846.41
2023-02-26T21:17:19.647Z,102850.13
2023-02-26T21:20:23.671Z,102846.69
2023-02-26T21:23:27.227Z,102848.09
2023-02-26T21:26:30.742Z,102859.16
2023-02-26T21:29:36.067Z,102857.19
2023-02-26T21:32:40.166Z,102861.75
2023-02-26T21:35:43.840Z,102862.31
2023-02-26T21:38:47.852Z,102868.19
2023-02-26T21:41:51.564Z,102870.53
2023-02-26T21:44:56.484Z,102878.34
2023-02-26T21:48:01.208Z,102871.25
2023-02-26T21:51:04.975Z,102879.63
2023-02-26T21:54:08.535Z,102877.63
2023-02-26T21:57:12.324Z,102880.78
2023-02-26T22:00:19.545Z,102886.91
2023-02-26T22:03:23.096Z,102883.44
2023-02-26T22:06:26.800Z,102885.06
2023-02-26T22:09:30.469Z,102882.41
2023-02-26T22:12:34.099Z,102881.50
2023-02-26T22:15:39.398Z,102890.69
2023-02-26T22:18:42.999Z,102897.34
2023-02-26T22:21:46.504Z,102898.78
2023-02-26T22:24:50.052Z,102885.13
2023-02-26T22:27:53.533Z,102893.97
2023-02-26T22:30:58.607Z,102894.22
2023-02-26T22:34:02.491Z,102892.13
2023-02-26T22:37:06.012Z,102900.00
2023-02-26T22:40:12.285Z,102909.31
2023-02-26T22:43:15.933Z,102906.69
2023-02-26T22:46:20.961Z,102908.25
2023-02-26T22:49:24.449Z,102910.75
2023-02-26T22:52:27.960Z,102915.59
2023-02-26T22:55:31.699Z,102908.75
2023-02-26T22:58:35.370Z,102915.50
2023-02-26T23:01:40.533Z,102914.53
2023-02-26T23:04:44.326Z,102911.81
2023-02-26T23:07:49.438Z,102913.41
2023-02-26T23:10:56.182Z,102913.56
2023-02-26T23:13:59.696Z,102916.16
2023-02-26T23:17:05.244Z,102911.81
2023-02-26T23:20:13.843Z,102911.41
2023-02-26T23:23:18.201Z,102915.31
2023-02-26T23:26:21.714Z,102917.72
2023-02-26T23:29:26.428Z,102906.63
2023-02-26T23:32:31.547Z,102913.31
2023-02-26T23:35:35.507Z,102923.50
2023-02-26T23:38:39.089Z,102919.88
2023-02-26T23:41:43.160Z,102922.13
2023-02-26T23:44:46.752Z,102928.75
2023-02-26T23:47:52.243Z,102916.06
2023-02-26T23:50:56.514Z,102919.53
2023-02-26T23:54:00.081Z,102918.84
2023-02-26T23:57:03.639Z,102929.28
